Time;durP1;ratioP1;P1;durP2;ratioP2;P2;SDS_P1;SDS_P2;PMS_P1;PMS_P2;Temp;Humidity;BMP_temperature;BMP_pressure;BME280_temperature;BME280_humidity;BME280_pressure;Samples;Min_cycle;Max_cycle;Signal;HPM_P1;HPM_P2
2023/02/05 00:01:51;;;;;;;11.50;10.30;;;1.50;99.90;;;;;;5093405;28;20849;-71
2023/02/05 00:04:19;;;;;;;14.70;10.13;;;1.50;99.90;;;;;;5093132;28;20515;-71
2023/02/05 00:06:48;;;;;;;11.40;10.20;;;1.40;99.90;;;;;;5093022;28;20465;-71
2023/02/05 00:09:16;;;;;;;12.40;11.20;;;1.40;99.90;;;;;;5074924;28;20468;-71
2023/02/05 00:11:44;;;;;;;10.77;9.70;;;1.40;99.90;;;;;;5093311;28;20453;-72
2023/02/05 00:14:13;;;;;;;10.73;9.77;;;1.40;99.90;;;;;;5093288;28;20443;-71
2023/02/05 00:16:41;;;;;;;10.80;9.70;;;1.40;99.90;;;;;;5093045;28;20434;-71
2023/02/05 00:19:09;;;;;;;10.17;9.17;;;1.40;99.90;;;;;;5093201;28;20488;-72
2023/02/05 00:21:37;;;;;;;9.43;8.53;;;1.40;99.90;;;;;;5092871;28;20936;-72
2023/02/05 00:24:06;;;;;;;10.10;9.07;;;1.30;99.90;;;;;;5093217;28;20428;-71
2023/02/05 00:26:34;;;;;;;10.90;9.83;;;1.30;99.90;;;;;;5096799;28;20470;-72
2023/02/05 00:29:03;;;;;;;9.90;8.90;;;1.30;99.90;;;;;;5096763;28;20814;-71
2023/02/05 00:31:32;;;;;;;9.53;8.53;;;1.30;99.90;;;;;;5097017;28;20477;-72
2023/02/05 00:34:02;;;;;;;9.97;8.73;;;1.30;99.90;;;;;;5079253;28;20490;-72
2023/02/05 00:36:31;;;;;;;8.73;7.83;;;1.20;99.90;;;;;;5097776;28;20438;-71
2023/02/05 00:38:59;;;;;;;10.50;9.10;;;1.20;99.90;;;;;;5078823;28;20468;-71
2023/02/05 00:41:27;;;;;;;8.33;7.53;;;1.20;99.90;;;;;;5078450;28;20452;-71
2023/02/05 00:43:55;;;;;;;8.83;7.97;;;1.20;99.90;;;;;;5096535;28;20447;-71
2023/02/05 00:46:23;;;;;;;8.90;8.00;;;1.20;99.90;;;;;;5078249;28;20474;-71
2023/02/05 00:48:54;;;;;;;8.53;7.63;;;1.20;99.90;;;;;;5078580;28;21037;-71
2023/02/05 00:51:22;;;;;;;9.30;8.40;;;1.20;99.90;;;;;;5078178;28;20822;-71
2023/02/05 00:53:50;;;;;;;9.70;8.03;;;1.20;99.90;;;;;;5078297;28;20443;-71
2023/02/05 00:56:19;;;;;;;8.97;8.00;;;1.20;99.90;;;;;;5078184;28;20440;-71
2023/02/05 00:58:48;;;;;;;8.93;8.07;;;1.20;99.90;;;;;;5096070;28;20526;-71
2023/02/05 01:01:17;;;;;;;9.80;6.90;;;1.20;99.90;;;;;;5078083;28;20448;-71
2023/02/05 01:03:45;;;;;;;8.23;7.43;;;1.20;99.90;;;;;;5096210;28;20433;-71
2023/02/05 01:06:14;;;;;;;12.13;8.23;;;1.20;99.90;;;;;;5078023;28;20842;-71
2023/02/05 01:08:42;;;;;;;8.10;7.30;;;1.20;99.90;;;;;;5096005;28;20448;-72
2023/02/05 01:11:11;;;;;;;7.77;6.80;;;1.20;99.90;;;;;;5077969;28;20912;-71
2023/02/05 01:13:39;;;;;;;9.53;7.83;;;1.20;99.90;;;;;;5078001;28;20454;-71
2023/02/05 01:16:09;;;;;;;8.40;7.43;;;1.10;99.90;;;;;;5078152;28;20441;-71
2023/02/05 01:18:37;;;;;;;8.27;7.43;;;1.10;99.90;;;;;;5077711;28;20834;-71
2023/02/05 01:21:05;;;;;;;8.80;8.00;;;1.10;99.90;;;;;;5077844;28;20454;-71
2023/02/05 01:23:35;;;;;;;8.67;7.77;;;1.10;99.90;;;;;;5096109;28;20439;-72
2023/02/05 01:26:03;;;;;;;8.13;7.33;;;1.10;99.90;;;;;;5077584;28;21089;-72
2023/02/05 01:28:31;;;;;;;10.00;9.00;;;1.10;99.90;;;;;;5095670;28;20454;-71
2023/02/05 01:31:00;;;;;;;9.63;7.90;;;1.10;99.90;;;;;;5077490;28;20450;-71
2023/02/05 01:33:29;;;;;;;9.17;8.20;;;1.20;99.90;;;;;;5077441;28;20450;-71
2023/02/05 01:35:57;;;;;;;10.47;9.37;;;1.20;99.90;;;;;;5095368;28;20432;-71
2023/02/05 01:38:25;;;;;;;7.70;6.53;;;1.20;99.90;;;;;;5077333;28;20463;-71
2023/02/05 01:40:54;;;;;;;8.13;7.33;;;1.20;99.90;;;;;;5095770;28;20548;-71
2023/02/05 01:43:22;;;;;;;9.23;7.30;;;1.20;99.90;;;;;;5077259;28;20441;-71
2023/02/05 01:46:16;;;;;;;9.10;8.07;;;1.20;99.90;;;;;;5077204;28;20467;-71
2023/02/05 01:48:48;;;;;;;8.63;7.83;;;1.20;99.90;;;;;;5095541;28;20549;-71
2023/02/05 01:51:17;;;;;;;9.33;8.33;;;1.20;99.90;;;;;;5077159;28;20821;-71
2023/02/05 01:53:48;;;;;;;9.40;8.40;;;1.30;99.90;;;;;;5077093;28;20468;-71
2023/02/05 01:56:21;;;;;;;9.27;8.37;;;1.30;99.90;;;;;;5095071;28;20413;-72
2023/02/05 01:58:54;;;;;;;10.67;7.63;;;1.30;99.90;;;;;;5076835;28;20475;-71
2023/02/05 02:01:23;;;;;;;10.10;9.20;;;1.30;99.90;;;;;;5095377;28;20513;-72
2023/02/05 02:03:53;;;;;;;10.03;9.03;;;1.30;99.90;;;;;;5076836;28;20442;-71
2023/02/05 02:06:21;;;;;;;8.87;7.97;;;1.30;99.90;;;;;;5095492;28;20455;-71
2023/02/05 02:08:50;;;;;;;9.60;8.70;;;1.30;99.90;;;;;;5094821;28;20463;-72
2023/02/05 02:11:23;;;;;;;10.17;8.23;;;1.30;99.90;;;;;;5094864;28;20974;-71
2023/02/05 02:13:53;;;;;;;8.43;7.63;;;1.40;99.90;;;;;;5095036;28;20773;-71
2023/02/05 02:16:22;;;;;;;9.30;8.33;;;1.40;99.90;;;;;;5094775;28;20428;-71
2023/02/05 02:18:52;;;;;;;9.87;8.37;;;1.40;99.90;;;;;;5076441;28;21082;-71
2023/02/05 02:21:44;;;;;;;9.87;8.53;;;1.40;99.90;;;;;;5076474;28;20450;-71
2023/02/05 02:24:34;;;;;;;8.37;7.57;;;1.40;99.90;;;;;;5076488;28;20480;-72
2023/02/05 02:27:20;;;;;;;10.13;8.53;;;1.40;99.90;;;;;;5074445;28;20482;-71
2023/02/05 02:29:55;;;;;;;9.17;8.20;;;1.50;99.90;;;;;;5094473;28;20475;-72
2023/02/05 02:32:31;;;;;;;12.40;9.17;;;1.40;99.90;;;;;;5076369;28;20436;-71
2023/02/05 02:35:06;;;;;;;9.90;8.10;;;1.50;99.90;;;;;;5076272;28;20537;-71
2023/02/05 02:37:43;;;;;;;10.07;8.70;;;1.50;99.90;;;;;;5076444;28;20559;-71
2023/02/05 02:40:20;;;;;;;9.67;8.77;;;1.50;99.90;;;;;;5094681;28;20415;-71
2023/02/05 02:42:54;;;;;;;8.80;8.00;;;1.50;99.90;;;;;;5076110;28;20971;-71
2023/02/05 02:45:28;;;;;;;9.17;8.27;;;1.50;99.90;;;;;;5076121;28;20444;-71
2023/02/05 02:47:59;;;;;;;9.30;8.20;;;1.50;99.90;;;;;;5093784;28;20503;-71
2023/02/05 02:50:34;;;;;;;10.17;9.03;;;1.60;99.90;;;;;;5076479;28;20439;-71
2023/02/05 02:53:09;;;;;;;10.50;9.30;;;1.60;99.90;;;;;;5076185;28;20447;-71
2023/02/05 02:55:41;;;;;;;10.53;9.13;;;1.60;99.90;;;;;;5076037;28;20443;-71
2023/02/05 02:58:16;;;;;;;10.60;9.60;;;1.60;99.90;;;;;;5075820;28;20474;-71
2023/02/05 03:00:46;;;;;;;9.50;8.60;;;1.60;99.90;;;;;;5075895;28;20439;-71
2023/02/05 03:03:18;;;;;;;9.40;8.50;;;1.60;99.90;;;;;;5076658;28;20447;-71
2023/02/05 03:05:49;;;;;;;8.97;7.90;;;1.60;99.90;;;;;;5075701;28;21004;-72
2023/02/05 03:08:22;;;;;;;9.53;8.63;;;1.60;99.90;;;;;;5075695;28;20496;-70
2023/02/05 03:10:55;;;;;;;10.30;9.30;;;1.70;99.90;;;;;;5075648;28;20439;-71
2023/02/05 03:13:23;;;;;;;10.57;9.53;;;1.70;99.90;;;;;;5075591;28;20495;-71
2023/02/05 03:15:58;;;;;;;9.77;8.77;;;1.70;99.90;;;;;;5075634;28;20441;-71
2023/02/05 03:18:26;;;;;;;10.30;9.30;;;1.70;99.90;;;;;;5093863;28;20551;-71
2023/02/05 03:20:58;;;;;;;9.97;9.07;;;1.70;99.90;;;;;;5093654;28;21016;-71
2023/02/05 03:23:27;;;;;;;10.63;9.57;;;1.70;99.90;;;;;;5075509;28;20506;-71
2023/02/05 03:25:55;;;;;;;10.03;9.03;;;1.70;99.90;;;;;;5075454;28;20447;-71
2023/02/05 03:28:33;;;;;;;12.00;9.57;;;1.70;99.90;;;;;;5075411;28;20478;-71
2023/02/05 03:31:10;;;;;;;10.00;9.10;;;1.70;99.90;;;;;;5075624;28;20448;-71
2023/02/05 03:33:46;;;;;;;10.30;9.37;;;1.70;99.90;;;;;;5075309;28;20440;-71
2023/02/05 03:36:25;;;;;;;10.37;9.30;;;1.70;99.90;;;;;;5075308;28;20481;-71
2023/02/05 03:39:05;;;;;;;10.50;9.50;;;1.70;99.90;;;;;;5075243;28;20492;-71
2023/02/05 03:41:58;;;;;;;10.70;9.43;;;1.70;99.90;;;;;;5075227;28;20470;-71
2023/02/05 03:45:02;;;;;;;11.87;9.30;;;1.70;99.90;;;;;;5075860;28;20437;-71
2023/02/05 03:47:44;;;;;;;11.80;9.53;;;1.70;99.90;;;;;;5075151;28;20975;-71
2023/02/05 03:50:18;;;;;;;11.07;9.17;;;1.70;99.90;;;;;;5075442;28;20465;-71
2023/02/05 03:52:51;;;;;;;9.93;9.03;;;1.70;99.90;;;;;;5093543;28;20428;-71
2023/02/05 03:55:24;;;;;;;10.80;9.70;;;1.70;99.90;;;;;;5075151;28;20485;-71
2023/02/05 03:57:59;;;;;;;11.20;10.10;;;1.70;99.90;;;;;;5074923;28;20465;-71
2023/02/05 04:00:29;;;;;;;10.40;9.30;;;1.70;99.90;;;;;;5095771;28;20932;-71
2023/02/05 04:02:58;;;;;;;10.20;9.30;;;1.70;99.90;;;;;;5080012;28;20807;-71
2023/02/05 04:05:31;;;;;;;10.40;9.30;;;1.70;99.90;;;;;;5079159;28;20441;-71
2023/02/05 04:08:02;;;;;;;11.43;10.43;;;1.70;99.90;;;;;;5078977;28;20995;-71
2023/02/05 04:10:35;;;;;;;11.00;9.80;;;1.70;99.90;;;;;;5079385;28;20539;-71
2023/02/05 04:13:03;;;;;;;11.70;10.60;;;1.70;99.90;;;;;;5079783;28;20484;-71
2023/02/05 04:15:33;;;;;;;11.43;10.40;;;1.80;99.90;;;;;;5078955;28;20499;-71
2023/02/05 04:18:07;;;;;;;10.70;9.73;;;1.80;99.90;;;;;;5078903;28;20467;-70
2023/02/05 04:20:35;;;;;;;10.17;9.20;;;1.80;99.90;;;;;;5097354;28;20508;-71
2023/02/05 04:23:04;;;;;;;10.83;9.80;;;1.80;99.90;;;;;;5078833;28;20554;-71
2023/02/05 04:25:36;;;;;;;10.50;9.60;;;1.80;99.90;;;;;;5078709;28;20446;-71
2023/02/05 04:28:06;;;;;;;10.70;9.60;;;1.80;99.90;;;;;;5096958;28;20489;-71
2023/02/05 04:30:35;;;;;;;11.23;10.20;;;1.80;99.90;;;;;;5079398;28;20783;-71
2023/02/05 04:33:05;;;;;;;10.60;9.60;;;1.80;99.90;;;;;;5096752;28;20445;-71
2023/02/05 04:35:34;;;;;;;10.60;9.50;;;1.80;99.90;;;;;;5078522;28;20506;-71
2023/02/05 04:38:03;;;;;;;11.40;10.30;;;1.80;99.90;;;;;;5096602;28;20960;-71
2023/02/05 04:40:31;;;;;;;11.87;10.67;;;1.80;99.90;;;;;;5078419;28;20440;-71
2023/02/05 04:42:59;;;;;;;11.33;10.33;;;1.80;99.90;;;;;;5096523;28;20438;-71
2023/02/05 04:45:29;;;;;;;10.80;9.80;;;1.80;99.90;;;;;;5096520;28;20489;-71
2023/02/05 04:47:58;;;;;;;10.97;9.97;;;1.80;99.90;;;;;;5096608;28;20810;-71
2023/02/05 04:50:27;;;;;;;10.90;9.90;;;1.80;99.90;;;;;;5096698;28;20503;-71
2023/02/05 04:52:56;;;;;;;10.87;9.70;;;1.80;99.90;;;;;;5096703;28;20464;-71
2023/02/05 04:55:24;;;;;;;11.53;10.43;;;1.80;99.90;;;;;;5096594;28;20487;-71
2023/02/05 04:57:52;;;;;;;10.70;9.70;;;1.80;99.90;;;;;;5096223;28;20549;-71
2023/02/05 05:00:20;;;;;;;10.57;9.47;;;1.80;99.90;;;;;;5096201;28;20428;-71
2023/02/05 05:02:48;;;;;;;11.53;10.43;;;1.80;99.90;;;;;;5096195;28;20447;-71
2023/02/05 05:05:17;;;;;;;11.47;10.27;;;1.80;99.90;;;;;;5096130;28;20440;-71
2023/02/05 05:07:46;;;;;;;10.70;9.70;;;1.80;99.90;;;;;;5095958;28;20873;-71
2023/02/05 05:10:14;;;;;;;11.47;10.37;;;1.80;99.90;;;;;;5095740;28;20435;-71
2023/02/05 05:12:42;;;;;;;11.27;10.27;;;1.90;99.90;;;;;;5095985;28;20467;-71
2023/02/05 05:15:10;;;;;;;11.33;10.33;;;1.90;99.90;;;;;;5077756;28;20454;-71
2023/02/05 05:17:38;;;;;;;11.77;10.70;;;1.90;99.90;;;;;;5095901;28;20440;-71
2023/02/05 05:20:07;;;;;;;11.67;10.60;;;1.90;99.90;;;;;;5096107;28;20436;-71
2023/02/05 05:22:35;;;;;;;10.80;9.80;;;1.90;99.90;;;;;;5077665;28;20454;-71
2023/02/05 05:25:05;;;;;;;11.53;10.53;;;1.90;99.90;;;;;;5095737;28;20435;-71
2023/02/05 05:27:33;;;;;;;11.43;10.43;;;1.90;99.90;;;;;;5095693;28;20431;-71
2023/02/05 05:30:01;;;;;;;11.80;10.67;;;1.90;99.90;;;;;;5095772;28;20481;-71
2023/02/05 05:32:29;;;;;;;11.17;10.27;;;1.90;99.90;;;;;;5095643;28;20446;-71
2023/02/05 05:34:57;;;;;;;12.20;11.10;;;1.90;99.90;;;;;;5077426;28;20449;-71
2023/02/05 05:37:25;;;;;;;11.57;10.50;;;1.90;99.90;;;;;;5095793;28;20433;-71
2023/02/05 05:45:25;;;;;;;12.87;11.67;;;1.90;99.90;;;;;;5077232;28;20443;-71
2023/02/05 05:47:54;;;;;;;13.10;11.80;;;1.90;99.90;;;;;;5077029;28;20441;-71
2023/02/05 05:50:22;;;;;;;13.13;11.83;;;1.90;99.90;;;;;;5077129;28;20446;-71
2023/02/05 05:52:50;;;;;;;13.30;12.07;;;1.90;99.90;;;;;;5095218;28;20504;-71
2023/02/05 05:55:18;;;;;;;13.30;12.10;;;1.90;99.90;;;;;;5095705;28;20470;-71
2023/02/05 05:57:47;;;;;;;12.90;11.73;;;1.90;99.90;;;;;;5095405;28;20794;-71
2023/02/05 06:00:16;;;;;;;14.70;13.10;;;1.90;99.90;;;;;;5095337;28;20476;-71
2023/02/05 06:02:44;;;;;;;14.10;12.80;;;1.90;99.90;;;;;;5076919;28;20796;-70
2023/02/05 06:05:12;;;;;;;13.87;12.50;;;1.90;99.90;;;;;;5095272;28;20433;-70
2023/02/05 06:07:40;;;;;;;12.80;11.40;;;1.80;99.90;;;;;;5076967;28;20447;-71
2023/02/05 06:10:08;;;;;;;14.33;12.70;;;1.90;99.90;;;;;;5094844;28;20514;-71
2023/02/05 06:12:37;;;;;;;13.47;12.27;;;1.90;99.90;;;;;;5076686;28;20449;-71
2023/02/05 06:15:07;;;;;;;14.17;12.77;;;1.90;99.90;;;;;;5076674;28;20561;-71
2023/02/05 06:17:35;;;;;;;14.17;12.93;;;1.80;99.90;;;;;;5076667;28;20449;-71
2023/02/05 06:20:04;;;;;;;15.73;14.23;;;1.80;99.90;;;;;;5094593;28;20872;-70
2023/02/05 06:22:32;;;;;;;15.00;13.43;;;1.90;99.90;;;;;;5075536;28;20444;-71
2023/02/05 06:25:01;;;;;;;15.00;13.60;;;1.80;99.90;;;;;;5076746;28;20997;-71
2023/02/05 06:27:29;;;;;;;14.53;13.17;;;1.90;99.90;;;;;;5094873;28;20481;-71
2023/02/05 06:29:57;;;;;;;14.23;12.80;;;1.80;99.90;;;;;;5094568;28;20464;-70
2023/02/05 06:32:26;;;;;;;15.33;13.53;;;1.80;99.90;;;;;;5076342;28;20443;-70
2023/02/05 06:34:54;;;;;;;15.47;14.07;;;1.80;99.90;;;;;;5076442;28;20467;-71
2023/02/05 06:37:24;;;;;;;15.93;14.43;;;1.80;99.90;;;;;;5094679;28;20951;-71
2023/02/05 06:40:14;;;;;;;13.97;12.67;;;1.80;99.90;;;;;;5094723;28;20433;-71
2023/02/05 06:42:42;;;;;;;16.10;14.53;;;1.80;99.90;;;;;;5094405;28;20799;-71
2023/02/05 06:45:11;;;;;;;15.43;14.03;;;1.80;99.90;;;;;;5094415;28;20452;-71
2023/02/05 06:47:40;;;;;;;15.63;14.30;;;1.90;99.90;;;;;;5076071;28;20863;-71
2023/02/05 06:50:09;;;;;;;14.73;13.43;;;1.80;99.90;;;;;;5094413;28;20826;-71
2023/02/05 06:52:37;;;;;;;16.23;14.83;;;1.80;99.90;;;;;;5075995;28;20447;-71
2023/02/05 06:55:06;;;;;;;14.83;13.47;;;1.80;99.90;;;;;;5094317;28;20492;-71
2023/02/05 06:57:34;;;;;;;15.80;14.30;;;1.80;99.90;;;;;;5094982;28;20549;-71
2023/02/05 07:00:02;;;;;;;16.50;15.00;;;1.80;99.90;;;;;;5093957;28;20475;-71
2023/02/05 07:02:30;;;;;;;15.77;14.27;;;1.80;99.90;;;;;;5075739;28;20465;-71
2023/02/05 07:05:00;;;;;;;15.90;14.40;;;1.80;99.90;;;;;;5094141;28;20447;-71
2023/02/05 07:07:28;;;;;;;14.80;13.50;;;1.80;99.90;;;;;;5094400;28;20799;-71
2023/02/05 07:09:56;;;;;;;15.83;14.53;;;1.80;99.90;;;;;;5093663;28;20470;-71
2023/02/05 07:12:24;;;;;;;15.83;14.33;;;1.90;99.90;;;;;;5093755;28;20434;-71
2023/02/05 07:14:52;;;;;;;16.07;14.47;;;1.90;99.90;;;;;;5075873;28;20851;-71
2023/02/05 07:17:20;;;;;;;15.80;14.50;;;1.90;99.90;;;;;;5093991;28;20434;-71
2023/02/05 07:19:48;;;;;;;16.80;15.40;;;1.90;99.90;;;;;;5093609;28;20458;-71
2023/02/05 07:22:18;;;;;;;16.27;14.73;;;1.90;99.90;;;;;;5093620;28;20437;-71
2023/02/05 07:24:46;;;;;;;17.37;15.87;;;1.90;99.90;;;;;;5093559;28;20465;-71
2023/02/05 07:27:14;;;;;;;16.93;15.30;;;1.90;99.90;;;;;;5075408;28;20441;-71
2023/02/05 07:29:42;;;;;;;16.93;15.37;;;1.90;99.90;;;;;;5093354;28;20983;-71
2023/02/05 07:32:10;;;;;;;16.17;14.70;;;1.90;99.90;;;;;;5075411;28;20443;-71
2023/02/05 07:34:38;;;;;;;18.50;16.80;;;1.90;99.90;;;;;;5093541;28;20978;-71
2023/02/05 07:37:07;;;;;;;16.23;14.70;;;2.00;99.90;;;;;;5093421;28;20428;-71
2023/02/05 07:39:36;;;;;;;17.37;15.73;;;1.90;99.90;;;;;;5093447;28;20511;-71
2023/02/05 07:42:04;;;;;;;16.97;15.40;;;2.00;99.90;;;;;;5093570;28;20449;-71
2023/02/05 07:44:41;;;;;;;17.37;15.73;;;2.00;99.90;;;;;;5075270;28;20822;-71
2023/02/05 07:47:09;;;;;;;17.80;16.20;;;2.00;99.90;;;;;;5093333;28;20488;-71
2023/02/05 07:49:38;;;;;;;16.97;15.37;;;2.00;99.90;;;;;;5093397;28;20498;-71
2023/02/05 07:52:07;;;;;;;18.23;16.73;;;2.00;99.90;;;;;;5093490;28;20435;-71
2023/02/05 07:54:36;;;;;;;18.63;17.03;;;2.10;99.90;;;;;;5093560;28;20438;-71
2023/02/05 07:57:04;;;;;;;19.03;17.17;;;2.10;99.90;;;;;;5093379;28;20425;-71
2023/02/05 07:59:34;;;;;;;17.00;15.50;;;2.10;99.90;;;;;;5093188;28;20945;-71
2023/02/05 08:02:02;;;;;;;17.37;15.80;;;2.10;99.90;;;;;;5093447;28;20435;-71
2023/02/05 08:04:30;;;;;;;17.83;16.13;;;2.10;99.90;;;;;;5093752;28;20434;-71
2023/02/05 08:06:58;;;;;;;16.87;15.17;;;2.10;99.90;;;;;;5093040;28;20448;-71
2023/02/05 08:09:26;;;;;;;22.00;19.83;;;2.20;99.90;;;;;;5092980;28;20527;-71
2023/02/05 08:11:55;;;;;;;32.83;29.40;;;2.20;99.90;;;;;;5074974;28;20443;-71
2023/02/05 08:14:24;;;;;;;28.57;25.67;;;2.20;99.90;;;;;;5074993;28;20451;-71
2023/02/05 08:16:52;;;;;;;18.57;16.97;;;2.20;99.90;;;;;;5074850;28;20458;-71
2023/02/05 08:19:20;;;;;;;18.63;17.03;;;2.20;99.90;;;;;;5092951;28;20464;-71
2023/02/05 08:21:48;;;;;;;20.00;17.93;;;2.20;99.90;;;;;;5093211;28;20432;-71
2023/02/05 08:24:16;;;;;;;20.00;18.20;;;2.20;99.90;;;;;;5074818;28;20541;-71
2023/02/05 08:26:44;;;;;;;19.40;17.50;;;2.30;99.90;;;;;;5093505;28;20447;-71
2023/02/05 08:29:14;;;;;;;21.10;19.30;;;2.30;99.90;;;;;;5092827;28;20473;-72
2023/02/05 08:31:42;;;;;;;24.37;22.10;;;2.30;99.90;;;;;;5092898;28;20445;-71
2023/02/05 08:34:10;;;;;;;21.83;19.87;;;2.30;99.90;;;;;;5093155;28;20440;-72
2023/02/05 08:36:38;;;;;;;19.40;17.70;;;2.40;99.90;;;;;;5074835;28;20445;-71
2023/02/05 08:39:06;;;;;;;19.07;17.47;;;2.30;99.90;;;;;;5092893;28;20463;-71
2023/02/05 08:41:34;;;;;;;19.40;17.70;;;2.40;99.90;;;;;;5075844;28;20772;-72
2023/02/05 08:44:02;;;;;;;19.00;17.20;;;2.40;99.90;;;;;;5074712;28;20459;-72
2023/02/05 08:46:32;;;;;;;19.20;17.50;;;2.40;99.90;;;;;;5094907;28;20432;-71
2023/02/05 08:49:16;;;;;;;34.17;28.70;;;2.40;99.90;;;;;;5096562;28;20971;-71
2023/02/05 08:51:44;;;;;;;19.53;17.73;;;2.50;99.90;;;;;;5078158;28;20472;-71
2023/02/05 08:54:14;;;;;;;17.90;16.40;;;2.50;99.90;;;;;;5096647;28;20447;-72
2023/02/05 08:56:43;;;;;;;18.47;16.67;;;2.50;99.90;;;;;;5096428;28;20910;-71
2023/02/05 08:59:12;;;;;;;19.90;18.17;;;2.50;99.90;;;;;;5078511;28;20523;-72
2023/02/05 09:01:43;;;;;;;19.40;17.33;;;2.60;99.90;;;;;;5096268;28;20436;-72
2023/02/05 09:04:13;;;;;;;20.10;18.20;;;2.60;99.90;;;;;;5096555;28;20515;-72
2023/02/05 09:06:42;;;;;;;19.13;17.43;;;2.60;99.90;;;;;;5096518;28;20421;-71
2023/02/05 09:09:11;;;;;;;19.20;17.60;;;2.60;99.90;;;;;;5077882;28;20490;-71
2023/02/05 09:11:39;;;;;;;18.77;17.10;;;2.70;99.90;;;;;;5096274;28;20467;-71
2023/02/05 09:14:08;;;;;;;23.23;21.23;;;2.70;99.90;;;;;;5096020;28;20441;-71
2023/02/05 09:16:36;;;;;;;20.27;18.47;;;2.70;99.90;;;;;;5095997;28;20471;-72
2023/02/05 09:19:07;;;;;;;20.77;18.70;;;2.70;99.90;;;;;;5096054;28;20474;-71
2023/02/05 09:21:35;;;;;;;20.60;18.70;;;2.80;99.90;;;;;;5095826;28;20439;-72
2023/02/05 09:24:04;;;;;;;21.70;19.77;;;2.80;99.90;;;;;;5077664;28;20436;-71
2023/02/05 09:26:32;;;;;;;22.60;20.67;;;2.80;99.90;;;;;;5095846;28;20447;-71
2023/02/05 09:29:00;;;;;;;22.43;20.43;;;2.80;99.90;;;;;;5095987;28;20468;-71
2023/02/05 09:31:28;;;;;;;24.83;22.53;;;2.80;99.90;;;;;;5095674;28;20566;-72
2023/02/05 09:33:56;;;;;;;22.93;20.90;;;2.80;99.90;;;;;;5095736;28;20428;-73
2023/02/05 09:36:25;;;;;;;20.83;19.13;;;2.90;99.90;;;;;;5095953;28;20455;-71
2023/02/05 09:38:55;;;;;;;20.90;19.07;;;2.90;99.90;;;;;;5095625;28;20449;-71
2023/02/05 09:41:47;;;;;;;21.70;19.60;;;2.90;99.90;;;;;;5095616;28;20421;-71
2023/02/05 09:44:24;;;;;;;21.50;19.70;;;2.90;99.90;;;;;;5095857;28;20419;-71
2023/02/05 09:47:01;;;;;;;20.00;18.20;;;3.00;99.90;;;;;;5095477;28;20448;-71
2023/02/05 09:49:34;;;;;;;20.90;19.03;;;3.00;99.90;;;;;;5095505;28;20561;-71
2023/02/05 09:52:11;;;;;;;22.80;20.70;;;3.00;99.90;;;;;;5095563;28;20846;-71
2023/02/05 09:54:43;;;;;;;22.57;20.23;;;3.00;99.90;;;;;;5095308;28;20890;-71
2023/02/05 09:57:16;;;;;;;20.50;18.70;;;3.00;99.90;;;;;;5095425;28;20427;-72
2023/02/05 09:59:46;;;;;;;21.47;19.50;;;3.00;99.90;;;;;;5095044;28;20458;-71
2023/02/05 10:02:24;;;;;;;20.17;18.30;;;3.10;99.90;;;;;;5076963;28;20441;-71
2023/02/05 10:04:53;;;;;;;20.50;18.60;;;3.10;99.90;;;;;;5095364;28;20419;-71
2023/02/05 10:07:41;;;;;;;21.83;19.77;;;3.10;99.90;;;;;;5076836;28;20455;-71
2023/02/05 10:10:23;;;;;;;22.33;20.43;;;3.10;99.90;;;;;;5095109;28;20434;-71
2023/02/05 10:13:07;;;;;;;24.23;22.20;;;3.10;99.90;;;;;;5095154;28;20775;-71
2023/02/05 10:15:50;;;;;;;22.87;20.70;;;3.10;99.90;;;;;;5095382;28;20746;-71
2023/02/05 10:18:24;;;;;;;27.83;25.37;;;3.10;99.90;;;;;;5094988;28;20452;-71
2023/02/05 10:21:01;;;;;;;24.17;21.97;;;3.10;99.90;;;;;;5095338;28;20435;-71
2023/02/05 10:23:50;;;;;;;20.27;18.37;;;3.10;99.90;;;;;;5095104;28;20989;-71
2023/02/05 10:26:18;;;;;;;18.37;16.67;;;3.10;99.90;;;;;;5094644;28;20454;-71
2023/02/05 10:29:07;;;;;;;19.70;17.70;;;3.10;99.90;;;;;;5094423;28;20455;-71
2023/02/05 10:31:41;;;;;;;19.33;17.53;;;3.10;99.90;;;;;;5076368;28;20488;-71
2023/02/05 10:34:28;;;;;;;20.10;18.27;;;3.10;99.90;;;;;;5077893;28;20849;-72
2023/02/05 10:36:57;;;;;;;18.67;17.03;;;3.20;99.90;;;;;;5094819;28;20489;-72
2023/02/05 10:39:29;;;;;;;20.33;18.43;;;3.20;99.90;;;;;;5094307;28;20464;-72
2023/02/05 10:42:01;;;;;;;19.10;17.40;;;3.20;99.90;;;;;;5076303;28;20436;-72
2023/02/05 10:44:32;;;;;;;21.63;19.60;;;3.20;99.90;;;;;;5094731;28;20443;-72
2023/02/05 10:47:10;;;;;;;22.03;19.83;;;3.30;99.90;;;;;;5094343;28;20431;-72
2023/02/05 10:49:46;;;;;;;19.53;17.83;;;3.30;99.90;;;;;;5094747;28;20545;-72
2023/02/05 10:52:16;;;;;;;18.80;17.20;;;3.30;99.90;;;;;;5075957;28;20460;-72
2023/02/05 10:54:46;;;;;;;22.43;20.40;;;3.30;99.90;;;;;;5094102;28;20855;-72
2023/02/05 10:57:16;;;;;;;20.17;18.20;;;3.30;99.90;;;;;;5094125;28;20446;-72
2023/02/05 10:59:51;;;;;;;20.00;18.20;;;3.30;99.90;;;;;;5075798;28;20460;-71
2023/02/05 11:02:21;;;;;;;21.67;19.47;;;3.30;99.90;;;;;;5075790;28;20867;-72
2023/02/05 11:04:55;;;;;;;20.40;18.50;;;3.30;99.90;;;;;;5093861;28;20899;-72
2023/02/05 11:07:28;;;;;;;22.17;20.13;;;3.20;99.90;;;;;;5094211;28;20891;-72
2023/02/05 11:10:12;;;;;;;22.00;20.10;;;3.20;99.90;;;;;;5075222;28;20470;-71
2023/02/05 11:12:40;;;;;;;24.00;21.80;;;3.20;99.90;;;;;;5093793;28;20942;-71
2023/02/05 11:15:19;;;;;;;24.97;22.87;;;3.20;99.90;;;;;;5094035;28;20785;-72
2023/02/05 11:17:51;;;;;;;23.70;21.30;;;3.20;99.90;;;;;;5094007;28;20432;-72
2023/02/05 11:20:27;;;;;;;24.70;22.37;;;3.20;99.90;;;;;;5094028;28;20441;-72
2023/02/05 11:23:18;;;;;;;25.23;22.83;;;3.20;99.90;;;;;;5093966;28;20412;-72
2023/02/05 11:25:52;;;;;;;23.70;21.23;;;3.20;99.90;;;;;;5093892;28;20432;-72
2023/02/05 11:28:27;;;;;;;22.80;20.70;;;3.20;99.90;;;;;;5093751;28;20470;-72
2023/02/05 11:30:55;;;;;;;23.83;21.47;;;3.30;99.90;;;;;;5093758;28;20500;-72
2023/02/05 11:33:27;;;;;;;22.73;20.63;;;3.20;99.90;;;;;;5075285;28;20451;-72
2023/02/05 11:35:58;;;;;;;26.13;23.80;;;3.30;99.90;;;;;;5093781;28;20423;-72
2023/02/05 11:38:31;;;;;;;23.33;20.97;;;3.30;99.90;;;;;;5093348;28;20847;-72
2023/02/05 11:41:04;;;;;;;23.80;21.33;;;3.30;99.90;;;;;;5093607;28;20876;-72
2023/02/05 11:43:35;;;;;;;25.77;23.20;;;3.30;99.90;;;;;;5093396;28;20412;-72
2023/02/05 11:46:06;;;;;;;27.20;24.70;;;3.30;99.90;;;;;;5093609;28;20425;-72
2023/02/05 11:48:42;;;;;;;24.80;22.40;;;3.30;99.90;;;;;;5075176;28;20474;-72
2023/02/05 11:51:13;;;;;;;23.93;21.53;;;3.30;99.90;;;;;;5093780;28;20427;-72
2023/02/05 11:53:51;;;;;;;24.53;22.20;;;3.30;99.90;;;;;;5093800;28;20464;-71
2023/02/05 11:56:23;;;;;;;25.03;22.53;;;3.40;99.90;;;;;;5093506;28;20422;-72
2023/02/05 11:59:00;;;;;;;23.27;21.20;;;3.40;99.90;;;;;;5093147;28;20510;-72
2023/02/05 12:01:32;;;;;;;24.13;21.73;;;3.40;99.90;;;;;;5093217;28;20419;-72
2023/02/05 12:04:03;;;;;;;24.33;22.00;;;3.50;99.90;;;;;;5075241;28;20988;-72
2023/02/05 12:06:41;;;;;;;26.37;23.93;;;3.50;99.90;;;;;;5075044;28;20459;-72
2023/02/05 12:09:11;;;;;;;24.60;22.50;;;3.50;99.90;;;;;;5093140;28;20457;-71
2023/02/05 12:12:10;;;;;;;24.77;22.27;;;3.50;99.90;;;;;;5074980;28;20464;-71
2023/02/05 12:14:44;;;;;;;27.00;24.40;;;3.50;99.90;;;;;;5093354;28;20540;-71
2023/02/05 12:17:31;;;;;;;27.47;24.90;;;3.50;99.90;;;;;;5093385;28;20427;-72
2023/02/05 12:20:12;;;;;;;29.07;26.17;;;3.50;99.90;;;;;;5074854;28;20460;-71
2023/02/05 12:23:01;;;;;;;27.47;24.80;;;3.50;99.90;;;;;;5097647;28;20416;-71
2023/02/05 12:25:36;;;;;;;28.53;25.70;;;3.60;99.90;;;;;;5097236;28;20439;-72
2023/02/05 12:28:22;;;;;;;28.40;25.67;;;3.60;99.90;;;;;;5097256;28;20959;-72
2023/02/05 12:31:08;;;;;;;31.20;28.30;;;3.60;99.90;;;;;;5078723;28;20973;-72
2023/02/05 12:33:58;;;;;;;31.23;28.33;;;3.60;99.90;;;;;;5096780;28;20455;-71
2023/02/05 12:36:38;;;;;;;29.50;26.80;;;3.60;99.90;;;;;;5096872;28;20422;-72
2023/02/05 12:39:24;;;;;;;29.27;26.53;;;3.70;99.90;;;;;;5096956;28;20464;-71
2023/02/05 12:42:00;;;;;;;28.30;25.70;;;3.70;99.90;;;;;;5096679;28;20787;-72
2023/02/05 12:44:44;;;;;;;28.87;25.97;;;3.80;99.90;;;;;;5078569;28;20463;-71
2023/02/05 12:47:26;;;;;;;29.23;26.60;;;3.80;99.90;;;;;;5097014;28;20416;-71
2023/02/05 12:50:12;;;;;;;29.77;26.87;;;3.90;99.90;;;;;;5096515;28;20456;-71
2023/02/05 12:52:56;;;;;;;32.00;29.00;;;3.90;99.90;;;;;;5096662;28;20945;-72
2023/02/05 12:55:37;;;;;;;30.47;27.70;;;3.90;99.90;;;;;;5096961;28;20415;-72
2023/02/05 12:58:09;;;;;;;31.03;28.13;;;4.00;99.90;;;;;;5096560;28;20471;-72
2023/02/05 13:00:44;;;;;;;33.47;30.37;;;4.00;99.90;;;;;;5103210;28;20408;-72
2023/02/05 13:03:21;;;;;;;33.17;30.07;;;4.10;99.90;;;;;;5104979;28;20442;-73
2023/02/05 13:05:55;;;;;;;32.67;29.40;;;4.10;99.90;;;;;;5106488;28;20419;-72
2023/02/05 13:08:34;;;;;;;32.63;29.63;;;4.10;99.90;;;;;;5084221;28;20467;-72
2023/02/05 13:11:07;;;;;;;34.80;31.40;;;4.10;99.90;;;;;;5100907;28;20419;-72
2023/02/05 13:13:45;;;;;;;32.13;29.20;;;4.20;99.90;;;;;;5100779;28;20456;-72